Corbera de Llobregat, Spain
Current Conditions -  °F | °C
As of 7:30 AM on Wednesday 26 Nov 2014 (Local Time) from LEBL Reporting Station
Scattered Clouds Scattered Clouds  
Wind Chill: 59°   Ceiling: Unl
Heat Index: 59°   Visibility: 4mi
Dew Point: 57°   Wind: 2mph
Humidity: 94%   Direction: NA
Pressure: 29.88"   Gusts: NA
Location:  41.42°N, 1.92°E
Report Text: LEBL 260630Z VRB02KT 7000 FEW016 SCT055 15/14 Q1012 TEMPO 4000 SHRA FEW020TCU
Loading
Personal Weather Stations






























Interactive Weather Map New forecast layout! Learn more

10-Day Weather Forecast

Advertisements
Track Severe Weather on mobile